sensor_id;sensor_type;location;lat;lon;timestamp;P1;durP1;ratioP1;P2;durP2;ratioP2
25905;SDS011;13713;52.552;13.204;2023-02-04T00:00:55;7.22;;;3.53;;
25905;SDS011;13713;52.552;13.204;2023-02-04T00:03:21;6.90;;;3.50;;
25905;SDS011;13713;52.552;13.204;2023-02-04T00:05:47;5.63;;;3.00;;
25905;SDS011;13713;52.552;13.204;2023-02-04T00:08:12;8.50;;;3.03;;
25905;SDS011;13713;52.552;13.204;2023-02-04T00:10:38;7.68;;;3.08;;
25905;SDS011;13713;52.552;13.204;2023-02-04T00:13:04;7.07;;;3.25;;
25905;SDS011;13713;52.552;13.204;2023-02-04T00:15:30;8.10;;;3.70;;
25905;SDS011;13713;52.552;13.204;2023-02-04T00:17:55;6.78;;;3.03;;
25905;SDS011;13713;52.552;13.204;2023-02-04T00:20:21;9.43;;;3.53;;
25905;SDS011;13713;52.552;13.204;2023-02-04T00:22:47;6.45;;;2.95;;
25905;SDS011;13713;52.552;13.204;2023-02-04T00:25:13;6.00;;;3.15;;
25905;SDS011;13713;52.552;13.204;2023-02-04T00:27:39;6.53;;;3.25;;
25905;SDS011;13713;52.552;13.204;2023-02-04T00:30:05;6.15;;;3.15;;
25905;SDS011;13713;52.552;13.204;2023-02-04T00:32:33;8.20;;;2.92;;
25905;SDS011;13713;52.552;13.204;2023-02-04T00:34:59;5.85;;;3.25;;
25905;SDS011;13713;52.552;13.204;2023-02-04T00:37:28;7.80;;;3.45;;
25905;SDS011;13713;52.552;13.204;2023-02-04T00:39:55;6.63;;;3.22;;
25905;SDS011;13713;52.552;13.204;2023-02-04T00:42:21;6.13;;;3.28;;
25905;SDS011;13713;52.552;13.204;2023-02-04T00:44:47;6.25;;;3.03;;
25905;SDS011;13713;52.552;13.204;2023-02-04T00:47:12;7.65;;;3.47;;
25905;SDS011;13713;52.552;13.204;2023-02-04T00:49:38;5.78;;;3.03;;
25905;SDS011;13713;52.552;13.204;2023-02-04T00:52:04;5.60;;;3.13;;
25905;SDS011;13713;52.552;13.204;2023-02-04T00:54:30;6.85;;;3.55;;
25905;SDS011;13713;52.552;13.204;2023-02-04T00:56:55;5.32;;;2.83;;
25905;SDS011;13713;52.552;13.204;2023-02-04T00:59:21;6.57;;;3.05;;
25905;SDS011;13713;52.552;13.204;2023-02-04T01:01:47;6.72;;;3.03;;
25905;SDS011;13713;52.552;13.204;2023-02-04T01:04:13;5.32;;;2.90;;
25905;SDS011;13713;52.552;13.204;2023-02-04T01:06:39;4.80;;;2.85;;
25905;SDS011;13713;52.552;13.204;2023-02-04T01:09:04;5.57;;;2.83;;
25905;SDS011;13713;52.552;13.204;2023-02-04T01:11:31;6.28;;;3.10;;
25905;SDS011;13713;52.552;13.204;2023-02-04T01:13:57;6.18;;;2.90;;
25905;SDS011;13713;52.552;13.204;2023-02-04T01:16:23;6.03;;;2.97;;
25905;SDS011;13713;52.552;13.204;2023-02-04T01:18:49;5.28;;;3.20;;
25905;SDS011;13713;52.552;13.204;2023-02-04T01:21:14;3.92;;;2.67;;
25905;SDS011;13713;52.552;13.204;2023-02-04T01:23:41;5.70;;;2.80;;
25905;SDS011;13713;52.552;13.204;2023-02-04T01:26:07;5.47;;;3.38;;
25905;SDS011;13713;52.552;13.204;2023-02-04T01:28:32;5.65;;;2.60;;
25905;SDS011;13713;52.552;13.204;2023-02-04T01:30:58;6.47;;;2.85;;
25905;SDS011;13713;52.552;13.204;2023-02-04T01:33:25;4.55;;;2.75;;
25905;SDS011;13713;52.552;13.204;2023-02-04T01:35:50;6.15;;;2.92;;
25905;SDS011;13713;52.552;13.204;2023-02-04T01:38:16;4.60;;;2.72;;
25905;SDS011;13713;52.552;13.204;2023-02-04T01:40:42;7.05;;;3.00;;
25905;SDS011;13713;52.552;13.204;2023-02-04T01:43:08;6.60;;;3.33;;
25905;SDS011;13713;52.552;13.204;2023-02-04T01:45:34;6.18;;;3.08;;
25905;SDS011;13713;52.552;13.204;2023-02-04T01:48:03;5.60;;;2.95;;
25905;SDS011;13713;52.552;13.204;2023-02-04T01:50:30;6.93;;;3.33;;
25905;SDS011;13713;52.552;13.204;2023-02-04T01:52:56;5.70;;;2.67;;
25905;SDS011;13713;52.552;13.204;2023-02-04T01:55:25;5.13;;;2.65;;
25905;SDS011;13713;52.552;13.204;2023-02-04T01:57:52;4.05;;;2.35;;
25905;SDS011;13713;52.552;13.204;2023-02-04T02:00:24;5.25;;;2.45;;
25905;SDS011;13713;52.552;13.204;2023-02-04T02:02:52;4.72;;;2.42;;
25905;SDS011;13713;52.552;13.204;2023-02-04T02:08:16;3.88;;;2.42;;
25905;SDS011;13713;52.552;13.204;2023-02-04T02:10:43;5.20;;;2.30;;
25905;SDS011;13713;52.552;13.204;2023-02-04T02:13:11;6.50;;;2.97;;
25905;SDS011;13713;52.552;13.204;2023-02-04T02:15:39;4.43;;;2.42;;
25905;SDS011;13713;52.552;13.204;2023-02-04T02:18:06;4.47;;;2.50;;
25905;SDS011;13713;52.552;13.204;2023-02-04T02:20:33;5.38;;;2.30;;
25905;SDS011;13713;52.552;13.204;2023-02-04T02:25:53;3.95;;;2.20;;
25905;SDS011;13713;52.552;13.204;2023-02-04T02:28:20;3.80;;;2.58;;
25905;SDS011;13713;52.552;13.204;2023-02-04T02:30:47;6.40;;;2.50;;
25905;SDS011;13713;52.552;13.204;2023-02-04T02:33:15;5.65;;;3.00;;
25905;SDS011;13713;52.552;13.204;2023-02-04T02:35:43;3.85;;;2.47;;
25905;SDS011;13713;52.552;13.204;2023-02-04T02:38:12;5.10;;;2.55;;
25905;SDS011;13713;52.552;13.204;2023-02-04T02:40:39;5.20;;;2.90;;
25905;SDS011;13713;52.552;13.204;2023-02-04T02:43:05;6.28;;;2.78;;
25905;SDS011;13713;52.552;13.204;2023-02-04T02:45:36;3.90;;;2.33;;
25905;SDS011;13713;52.552;13.204;2023-02-04T02:48:02;4.40;;;2.47;;
25905;SDS011;13713;52.552;13.204;2023-02-04T02:50:29;4.20;;;2.65;;
25905;SDS011;13713;52.552;13.204;2023-02-04T02:52:57;4.82;;;2.45;;
25905;SDS011;13713;52.552;13.204;2023-02-04T02:55:24;4.35;;;2.28;;
25905;SDS011;13713;52.552;13.204;2023-02-04T02:57:51;4.75;;;2.80;;
25905;SDS011;13713;52.552;13.204;2023-02-04T03:00:22;6.13;;;2.80;;
25905;SDS011;13713;52.552;13.204;2023-02-04T03:05:21;5.65;;;2.53;;
25905;SDS011;13713;52.552;13.204;2023-02-04T03:07:48;4.55;;;2.45;;
25905;SDS011;13713;52.552;13.204;2023-02-04T03:10:15;4.00;;;2.17;;
25905;SDS011;13713;52.552;13.204;2023-02-04T03:12:42;4.50;;;2.50;;
25905;SDS011;13713;52.552;13.204;2023-02-04T03:15:09;5.47;;;2.30;;
25905;SDS011;13713;52.552;13.204;2023-02-04T03:17:34;4.88;;;2.20;;
25905;SDS011;13713;52.552;13.204;2023-02-04T03:20:01;4.30;;;2.42;;
25905;SDS011;13713;52.552;13.204;2023-02-04T03:22:27;4.18;;;2.15;;
25905;SDS011;13713;52.552;13.204;2023-02-04T03:24:53;4.32;;;2.50;;
25905;SDS011;13713;52.552;13.204;2023-02-04T03:27:22;4.32;;;2.10;;
25905;SDS011;13713;52.552;13.204;2023-02-04T03:29:49;4.07;;;2.33;;
25905;SDS011;13713;52.552;13.204;2023-02-04T03:32:15;4.45;;;2.40;;
25905;SDS011;13713;52.552;13.204;2023-02-04T03:34:41;3.28;;;1.90;;
25905;SDS011;13713;52.552;13.204;2023-02-04T03:37:07;4.32;;;2.20;;
25905;SDS011;13713;52.552;13.204;2023-02-04T03:39:33;3.60;;;2.30;;
25905;SDS011;13713;52.552;13.204;2023-02-04T03:41:59;5.43;;;2.25;;
25905;SDS011;13713;52.552;13.204;2023-02-04T03:44:24;3.90;;;2.38;;
25905;SDS011;13713;52.552;13.204;2023-02-04T03:46:51;5.22;;;2.58;;
25905;SDS011;13713;52.552;13.204;2023-02-04T03:49:20;4.35;;;2.40;;
25905;SDS011;13713;52.552;13.204;2023-02-04T03:51:46;3.63;;;2.05;;
25905;SDS011;13713;52.552;13.204;2023-02-04T03:54:12;4.32;;;2.17;;
25905;SDS011;13713;52.552;13.204;2023-02-04T03:56:38;3.58;;;2.00;;
25905;SDS011;13713;52.552;13.204;2023-02-04T03:59:03;4.15;;;2.72;;
25905;SDS011;13713;52.552;13.204;2023-02-04T04:01:29;4.97;;;2.13;;
25905;SDS011;13713;52.552;13.204;2023-02-04T04:03:55;4.40;;;2.50;;
25905;SDS011;13713;52.552;13.204;2023-02-04T04:06:21;5.03;;;2.40;;
25905;SDS011;13713;52.552;13.204;2023-02-04T04:08:46;4.13;;;2.47;;
25905;SDS011;13713;52.552;13.204;2023-02-04T04:11:12;3.83;;;2.20;;
25905;SDS011;13713;52.552;13.204;2023-02-04T04:13:37;4.00;;;1.95;;
25905;SDS011;13713;52.552;13.204;2023-02-04T04:16:03;4.28;;;2.50;;
25905;SDS011;13713;52.552;13.204;2023-02-04T04:18:29;3.10;;;1.73;;
25905;SDS011;13713;52.552;13.204;2023-02-04T04:20:57;3.75;;;2.17;;
25905;SDS011;13713;52.552;13.204;2023-02-04T04:23:23;4.25;;;2.00;;
25905;SDS011;13713;52.552;13.204;2023-02-04T04:25:49;3.08;;;1.92;;
25905;SDS011;13713;52.552;13.204;2023-02-04T04:28:15;4.15;;;1.90;;
25905;SDS011;13713;52.552;13.204;2023-02-04T04:30:40;4.07;;;1.92;;
25905;SDS011;13713;52.552;13.204;2023-02-04T04:33:06;4.13;;;2.00;;
25905;SDS011;13713;52.552;13.204;2023-02-04T04:35:32;4.30;;;2.10;;
25905;SDS011;13713;52.552;13.204;2023-02-04T04:37:59;3.28;;;1.83;;
25905;SDS011;13713;52.552;13.204;2023-02-04T04:40:25;4.15;;;1.85;;
25905;SDS011;13713;52.552;13.204;2023-02-04T04:42:51;4.07;;;2.22;;
25905;SDS011;13713;52.552;13.204;2023-02-04T04:45:16;4.35;;;2.10;;
25905;SDS011;13713;52.552;13.204;2023-02-04T04:47:43;3.22;;;2.20;;
25905;SDS011;13713;52.552;13.204;2023-02-04T04:50:09;3.95;;;1.85;;
25905;SDS011;13713;52.552;13.204;2023-02-04T04:52:35;4.00;;;2.25;;
25905;SDS011;13713;52.552;13.204;2023-02-04T04:55:01;4.82;;;2.50;;
25905;SDS011;13713;52.552;13.204;2023-02-04T04:57:27;3.58;;;1.70;;
25905;SDS011;13713;52.552;13.204;2023-02-04T04:59:53;4.05;;;1.85;;
25905;SDS011;13713;52.552;13.204;2023-02-04T05:02:18;4.53;;;2.15;;
25905;SDS011;13713;52.552;13.204;2023-02-04T05:04:44;3.97;;;2.05;;
25905;SDS011;13713;52.552;13.204;2023-02-04T05:07:10;3.50;;;2.00;;
25905;SDS011;13713;52.552;13.204;2023-02-04T05:09:35;4.60;;;1.85;;
25905;SDS011;13713;52.552;13.204;2023-02-04T05:12:01;3.00;;;1.60;;
25905;SDS011;13713;52.552;13.204;2023-02-04T05:14:27;4.70;;;2.03;;
25905;SDS011;13713;52.552;13.204;2023-02-04T05:16:52;4.18;;;1.90;;
25905;SDS011;13713;52.552;13.204;2023-02-04T05:19:18;3.45;;;1.80;;
25905;SDS011;13713;52.552;13.204;2023-02-04T05:21:44;2.80;;;1.75;;
25905;SDS011;13713;52.552;13.204;2023-02-04T05:24:09;3.38;;;1.73;;
25905;SDS011;13713;52.552;13.204;2023-02-04T05:26:35;4.13;;;2.13;;
25905;SDS011;13713;52.552;13.204;2023-02-04T05:29:00;4.53;;;2.03;;
25905;SDS011;13713;52.552;13.204;2023-02-04T05:31:27;3.25;;;1.98;;
25905;SDS011;13713;52.552;13.204;2023-02-04T05:33:52;3.30;;;1.70;;
25905;SDS011;13713;52.552;13.204;2023-02-04T05:36:18;3.85;;;2.03;;
25905;SDS011;13713;52.552;13.204;2023-02-04T05:38:44;3.10;;;1.65;;
25905;SDS011;13713;52.552;13.204;2023-02-04T05:41:10;3.53;;;1.90;;
25905;SDS011;13713;52.552;13.204;2023-02-04T05:43:36;3.75;;;2.38;;
25905;SDS011;13713;52.552;13.204;2023-02-04T05:46:02;3.72;;;1.67;;
25905;SDS011;13713;52.552;13.204;2023-02-04T05:48:27;2.72;;;1.55;;
25905;SDS011;13713;52.552;13.204;2023-02-04T05:50:53;3.17;;;1.83;;
25905;SDS011;13713;52.552;13.204;2023-02-04T05:53:19;4.18;;;2.00;;
25905;SDS011;13713;52.552;13.204;2023-02-04T05:55:44;2.90;;;1.63;;
25905;SDS011;13713;52.552;13.204;2023-02-04T05:58:10;3.40;;;1.95;;
25905;SDS011;13713;52.552;13.204;2023-02-04T06:00:36;4.72;;;2.22;;
25905;SDS011;13713;52.552;13.204;2023-02-04T06:03:02;5.22;;;2.05;;
25905;SDS011;13713;52.552;13.204;2023-02-04T06:05:27;2.88;;;1.67;;
25905;SDS011;13713;52.552;13.204;2023-02-04T06:07:53;2.63;;;1.60;;
25905;SDS011;13713;52.552;13.204;2023-02-04T06:10:18;4.05;;;1.83;;
25905;SDS011;13713;52.552;13.204;2023-02-04T06:12:45;3.17;;;1.85;;
25905;SDS011;13713;52.552;13.204;2023-02-04T06:15:11;4.53;;;2.20;;
25905;SDS011;13713;52.552;13.204;2023-02-04T06:17:37;3.17;;;1.65;;
25905;SDS011;13713;52.552;13.204;2023-02-04T06:20:04;3.88;;;2.10;;
25905;SDS011;13713;52.552;13.204;2023-02-04T06:22:30;3.60;;;1.85;;
25905;SDS011;13713;52.552;13.204;2023-02-04T06:24:56;3.00;;;1.70;;
25905;SDS011;13713;52.552;13.204;2023-02-04T06:27:22;2.88;;;1.70;;
25905;SDS011;13713;52.552;13.204;2023-02-04T06:29:51;3.88;;;1.80;;
25905;SDS011;13713;52.552;13.204;2023-02-04T06:32:18;3.05;;;1.58;;
25905;SDS011;13713;52.552;13.204;2023-02-04T06:34:44;3.78;;;1.80;;
25905;SDS011;13713;52.552;13.204;2023-02-04T06:37:10;3.35;;;1.85;;
25905;SDS011;13713;52.552;13.204;2023-02-04T06:39:37;4.50;;;1.67;;
25905;SDS011;13713;52.552;13.204;2023-02-04T06:42:02;2.90;;;1.70;;
25905;SDS011;13713;52.552;13.204;2023-02-04T06:44:28;2.95;;;1.73;;
25905;SDS011;13713;52.552;13.204;2023-02-04T06:46:54;3.22;;;1.83;;
25905;SDS011;13713;52.552;13.204;2023-02-04T06:49:20;3.42;;;1.77;;
25905;SDS011;13713;52.552;13.204;2023-02-04T06:51:45;3.72;;;1.70;;
25905;SDS011;13713;52.552;13.204;2023-02-04T06:54:12;3.15;;;2.03;;
25905;SDS011;13713;52.552;13.204;2023-02-04T06:56:38;3.28;;;1.42;;
25905;SDS011;13713;52.552;13.204;2023-02-04T06:59:04;2.88;;;1.60;;
25905;SDS011;13713;52.552;13.204;2023-02-04T07:01:29;3.35;;;1.60;;
25905;SDS011;13713;52.552;13.204;2023-02-04T07:03:55;3.53;;;1.80;;
25905;SDS011;13713;52.552;13.204;2023-02-04T07:06:21;3.38;;;2.03;;
25905;SDS011;13713;52.552;13.204;2023-02-04T07:08:47;2.40;;;1.45;;
25905;SDS011;13713;52.552;13.204;2023-02-04T07:11:13;3.53;;;1.50;;
25905;SDS011;13713;52.552;13.204;2023-02-04T07:13:39;3.50;;;1.52;;
25905;SDS011;13713;52.552;13.204;2023-02-04T07:16:05;3.15;;;1.83;;
25905;SDS011;13713;52.552;13.204;2023-02-04T07:18:31;3.55;;;1.58;;
25905;SDS011;13713;52.552;13.204;2023-02-04T07:20:57;3.78;;;1.83;;
25905;SDS011;13713;52.552;13.204;2023-02-04T07:23:22;3.15;;;1.50;;
25905;SDS011;13713;52.552;13.204;2023-02-04T07:25:49;3.10;;;1.77;;
25905;SDS011;13713;52.552;13.204;2023-02-04T07:28:18;3.83;;;1.80;;
25905;SDS011;13713;52.552;13.204;2023-02-04T07:30:44;2.75;;;1.50;;
25905;SDS011;13713;52.552;13.204;2023-02-04T07:33:10;2.10;;;1.35;;
25905;SDS011;13713;52.552;13.204;2023-02-04T07:35:36;3.20;;;1.77;;
25905;SDS011;13713;52.552;13.204;2023-02-04T07:38:04;3.08;;;1.70;;
25905;SDS011;13713;52.552;13.204;2023-02-04T07:40:30;2.50;;;1.50;;
25905;SDS011;13713;52.552;13.204;2023-02-04T07:42:56;2.05;;;1.55;;
25905;SDS011;13713;52.552;13.204;2023-02-04T07:45:22;2.45;;;1.60;;
25905;SDS011;13713;52.552;13.204;2023-02-04T07:47:48;2.88;;;1.40;;
25905;SDS011;13713;52.552;13.204;2023-02-04T07:50:14;3.08;;;1.67;;
25905;SDS011;13713;52.552;13.204;2023-02-04T07:52:40;2.72;;;1.42;;
25905;SDS011;13713;52.552;13.204;2023-02-04T07:55:06;3.30;;;1.73;;
25905;SDS011;13713;52.552;13.204;2023-02-04T07:57:32;3.63;;;1.58;;
25905;SDS011;13713;52.552;13.204;2023-02-04T07:59:58;3.95;;;2.00;;
25905;SDS011;13713;52.552;13.204;2023-02-04T08:02:24;4.00;;;1.67;;
25905;SDS011;13713;52.552;13.204;2023-02-04T08:04:50;2.70;;;1.40;;
25905;SDS011;13713;52.552;13.204;2023-02-04T08:07:16;3.15;;;1.88;;
25905;SDS011;13713;52.552;13.204;2023-02-04T08:09:42;2.80;;;1.40;;
25905;SDS011;13713;52.552;13.204;2023-02-04T08:12:07;2.75;;;1.23;;
25905;SDS011;13713;52.552;13.204;2023-02-04T08:14:33;2.13;;;1.30;;
25905;SDS011;13713;52.552;13.204;2023-02-04T08:16:59;2.75;;;1.52;;
25905;SDS011;13713;52.552;13.204;2023-02-04T08:19:25;2.88;;;1.52;;
25905;SDS011;13713;52.552;13.204;2023-02-04T08:21:50;3.72;;;1.50;;
25905;SDS011;13713;52.552;13.204;2023-02-04T08:24:16;3.00;;;1.33;;
25905;SDS011;13713;52.552;13.204;2023-02-04T08:26:42;3.33;;;1.58;;
25905;SDS011;13713;52.552;13.204;2023-02-04T08:29:08;3.15;;;1.60;;
25905;SDS011;13713;52.552;13.204;2023-02-04T08:31:35;2.38;;;1.33;;
25905;SDS011;13713;52.552;13.204;2023-02-04T08:34:01;3.22;;;1.63;;
25905;SDS011;13713;52.552;13.204;2023-02-04T08:36:29;2.50;;;1.50;;
25905;SDS011;13713;52.552;13.204;2023-02-04T08:38:54;3.03;;;1.52;;
25905;SDS011;13713;52.552;13.204;2023-02-04T08:41:20;2.85;;;1.27;;
25905;SDS011;13713;52.552;13.204;2023-02-04T08:43:46;3.15;;;1.42;;
25905;SDS011;13713;52.552;13.204;2023-02-04T08:46:11;2.33;;;1.38;;
25905;SDS011;13713;52.552;13.204;2023-02-04T08:48:37;2.60;;;1.60;;
25905;SDS011;13713;52.552;13.204;2023-02-04T08:51:03;3.33;;;1.55;;
25905;SDS011;13713;52.552;13.204;2023-02-04T08:53:28;3.67;;;1.75;;
25905;SDS011;13713;52.552;13.204;2023-02-04T08:55:54;3.85;;;1.75;;
25905;SDS011;13713;52.552;13.204;2023-02-04T08:58:20;5.35;;;1.80;;
25905;SDS011;13713;52.552;13.204;2023-02-04T09:00:45;2.45;;;1.40;;
25905;SDS011;13713;52.552;13.204;2023-02-04T09:03:11;2.72;;;1.48;;
25905;SDS011;13713;52.552;13.204;2023-02-04T09:05:37;2.53;;;1.33;;
25905;SDS011;13713;52.552;13.204;2023-02-04T09:08:02;2.55;;;1.52;;
25905;SDS011;13713;52.552;13.204;2023-02-04T09:10:28;3.22;;;1.67;;
25905;SDS011;13713;52.552;13.204;2023-02-04T09:12:54;3.63;;;1.40;;
25905;SDS011;13713;52.552;13.204;2023-02-04T09:15:20;3.40;;;1.40;;
25905;SDS011;13713;52.552;13.204;2023-02-04T09:17:49;1.85;;;1.13;;
25905;SDS011;13713;52.552;13.204;2023-02-04T09:20:17;3.17;;;1.67;;
25905;SDS011;13713;52.552;13.204;2023-02-04T09:22:43;3.80;;;1.60;;
25905;SDS011;13713;52.552;13.204;2023-02-04T09:25:09;2.55;;;1.67;;
25905;SDS011;13713;52.552;13.204;2023-02-04T09:27:35;2.97;;;1.40;;
25905;SDS011;13713;52.552;13.204;2023-02-04T09:30:00;2.13;;;1.42;;
25905;SDS011;13713;52.552;13.204;2023-02-04T09:32:26;2.70;;;1.33;;
25905;SDS011;13713;52.552;13.204;2023-02-04T09:34:52;3.53;;;1.60;;
25905;SDS011;13713;52.552;13.204;2023-02-04T09:37:17;4.50;;;1.58;;
25905;SDS011;13713;52.552;13.204;2023-02-04T09:39:43;4.43;;;1.60;;
25905;SDS011;13713;52.552;13.204;2023-02-04T09:42:10;1.98;;;1.10;;
25905;SDS011;13713;52.552;13.204;2023-02-04T09:44:38;3.38;;;1.20;;
25905;SDS011;13713;52.552;13.204;2023-02-04T09:47:04;2.92;;;1.50;;
25905;SDS011;13713;52.552;13.204;2023-02-04T09:49:30;4.72;;;1.73;;
25905;SDS011;13713;52.552;13.204;2023-02-04T09:51:57;4.78;;;1.60;;
25905;SDS011;13713;52.552;13.204;2023-02-04T09:54:22;3.42;;;1.48;;
25905;SDS011;13713;52.552;13.204;2023-02-04T09:56:49;2.33;;;1.30;;
25905;SDS011;13713;52.552;13.204;2023-02-04T09:59:20;3.05;;;1.40;;
25905;SDS011;13713;52.552;13.204;2023-02-04T10:01:54;2.88;;;1.63;;
25905;SDS011;13713;52.552;13.204;2023-02-04T10:04:24;2.38;;;1.70;;
25905;SDS011;13713;52.552;13.204;2023-02-04T10:06:49;2.65;;;1.30;;
25905;SDS011;13713;52.552;13.204;2023-02-04T10:09:15;3.47;;;1.33;;
25905;SDS011;13713;52.552;13.204;2023-02-04T10:11:42;3.58;;;1.40;;
25905;SDS011;13713;52.552;13.204;2023-02-04T10:14:28;3.47;;;1.50;;
25905;SDS011;13713;52.552;13.204;2023-02-04T10:16:57;3.13;;;1.50;;
25905;SDS011;13713;52.552;13.204;2023-02-04T10:19:25;3.13;;;1.58;;
25905;SDS011;13713;52.552;13.204;2023-02-04T10:21:53;3.50;;;1.45;;
25905;SDS011;13713;52.552;13.204;2023-02-04T10:24:20;3.08;;;1.50;;
25905;SDS011;13713;52.552;13.204;2023-02-04T10:26:50;4.78;;;1.73;;
25905;SDS011;13713;52.552;13.204;2023-02-04T10:29:17;3.15;;;1.33;;
25905;SDS011;13713;52.552;13.204;2023-02-04T10:31:48;3.05;;;1.52;;
25905;SDS011;13713;52.552;13.204;2023-02-04T10:34:16;3.08;;;1.58;;
25905;SDS011;13713;52.552;13.204;2023-02-04T10:36:56;4.47;;;1.52;;
25905;SDS011;13713;52.552;13.204;2023-02-04T10:39:24;3.63;;;1.80;;
25905;SDS011;13713;52.552;13.204;2023-02-04T10:41:52;2.42;;;1.33;;
25905;SDS011;13713;52.552;13.204;2023-02-04T10:44:33;3.25;;;1.60;;
25905;SDS011;13713;52.552;13.204;2023-02-04T10:49:26;3.58;;;1.70;;
25905;SDS011;13713;52.552;13.204;2023-02-04T10:51:52;4.13;;;1.50;;
25905;SDS011;13713;52.552;13.204;2023-02-04T10:54:22;2.30;;;1.40;;
25905;SDS011;13713;52.552;13.204;2023-02-04T10:59:31;5.93;;;1.52;;
25905;SDS011;13713;52.552;13.204;2023-02-04T11:01:57;3.28;;;1.42;;
25905;SDS011;13713;52.552;13.204;2023-02-04T11:04:26;2.92;;;1.10;;
25905;SDS011;13713;52.552;13.204;2023-02-04T11:06:52;2.25;;;1.35;;
25905;SDS011;13713;52.552;13.204;2023-02-04T11:09:19;2.17;;;1.40;;
25905;SDS011;13713;52.552;13.204;2023-02-04T11:11:46;3.15;;;1.35;;
25905;SDS011;13713;52.552;13.204;2023-02-04T11:14:20;3.95;;;1.85;;
25905;SDS011;13713;52.552;13.204;2023-02-04T11:16:52;4.00;;;1.30;;
25905;SDS011;13713;52.552;13.204;2023-02-04T11:19:36;4.13;;;1.30;;
25905;SDS011;13713;52.552;13.204;2023-02-04T11:22:07;3.33;;;1.58;;
25905;SDS011;13713;52.552;13.204;2023-02-04T11:24:46;3.53;;;2.10;;
25905;SDS011;13713;52.552;13.204;2023-02-04T11:27:19;3.42;;;1.90;;
25905;SDS011;13713;52.552;13.204;2023-02-04T11:29:48;2.65;;;1.45;;
25905;SDS011;13713;52.552;13.204;2023-02-04T11:32:33;3.28;;;1.80;;
25905;SDS011;13713;52.552;13.204;2023-02-04T11:35:06;4.40;;;1.98;;
25905;SDS011;13713;52.552;13.204;2023-02-04T11:37:38;3.25;;;1.73;;
25905;SDS011;13713;52.552;13.204;2023-02-04T11:42:58;3.60;;;2.10;;
25905;SDS011;13713;52.552;13.204;2023-02-04T11:45:38;5.70;;;2.97;;
25905;SDS011;13713;52.552;13.204;2023-02-04T11:48:12;5.90;;;2.33;;
25905;SDS011;13713;52.552;13.204;2023-02-04T11:50:53;3.85;;;1.83;;
25905;SDS011;13713;52.552;13.204;2023-02-04T11:53:30;5.32;;;2.72;;
25905;SDS011;13713;52.552;13.204;2023-02-04T11:55:57;5.78;;;3.63;;
25905;SDS011;13713;52.552;13.204;2023-02-04T11:58:23;6.15;;;4.28;;
25905;SDS011;13713;52.552;13.204;2023-02-04T12:00:52;7.03;;;4.43;;
25905;SDS011;13713;52.552;13.204;2023-02-04T12:03:23;8.88;;;5.00;;
25905;SDS011;13713;52.552;13.204;2023-02-04T12:05:50;8.75;;;5.65;;
25905;SDS011;13713;52.552;13.204;2023-02-04T12:11:09;9.85;;;6.95;;
25905;SDS011;13713;52.552;13.204;2023-02-04T12:13:49;36.13;;;23.45;;
25905;SDS011;13713;52.552;13.204;2023-02-04T12:16:17;40.90;;;29.08;;
25905;SDS011;13713;52.552;13.204;2023-02-04T12:18:43;29.73;;;22.27;;
25905;SDS011;13713;52.552;13.204;2023-02-04T12:21:09;31.02;;;21.48;;
25905;SDS011;13713;52.552;13.204;2023-02-04T12:23:34;31.42;;;22.65;;
25905;SDS011;13713;52.552;13.204;2023-02-04T12:26:00;30.30;;;22.67;;
25905;SDS011;13713;52.552;13.204;2023-02-04T12:28:26;28.52;;;19.77;;
25905;SDS011;13713;52.552;13.204;2023-02-04T12:30:53;27.63;;;20.85;;
25905;SDS011;13713;52.552;13.204;2023-02-04T12:33:19;29.42;;;20.10;;
25905;SDS011;13713;52.552;13.204;2023-02-04T12:35:46;30.00;;;21.15;;
25905;SDS011;13713;52.552;13.204;2023-02-04T12:38:12;31.25;;;20.58;;
25905;SDS011;13713;52.552;13.204;2023-02-04T12:40:38;28.20;;;19.75;;
25905;SDS011;13713;52.552;13.204;2023-02-04T12:43:04;28.95;;;20.70;;
25905;SDS011;13713;52.552;13.204;2023-02-04T12:45:30;26.65;;;19.63;;
25905;SDS011;13713;52.552;13.204;2023-02-04T12:47:56;26.90;;;19.63;;
25905;SDS011;13713;52.552;13.204;2023-02-04T12:50:22;26.65;;;19.63;;
25905;SDS011;13713;52.552;13.204;2023-02-04T12:52:51;27.48;;;19.70;;
25905;SDS011;13713;52.552;13.204;2023-02-04T12:55:18;26.38;;;18.85;;
25905;SDS011;13713;52.552;13.204;2023-02-04T12:57:44;24.05;;;18.42;;
25905;SDS011;13713;52.552;13.204;2023-02-04T13:00:11;24.92;;;18.42;;
25905;SDS011;13713;52.552;13.204;2023-02-04T13:02:38;27.08;;;19.13;;
25905;SDS011;13713;52.552;13.204;2023-02-04T13:05:04;24.98;;;17.98;;
25905;SDS011;13713;52.552;13.204;2023-02-04T13:07:29;23.75;;;17.98;;
25905;SDS011;13713;52.552;13.204;2023-02-04T13:09:55;25.33;;;17.52;;
25905;SDS011;13713;52.552;13.204;2023-02-04T13:12:21;24.92;;;17.27;;
25905;SDS011;13713;52.552;13.204;2023-02-04T13:14:47;25.55;;;17.30;;
25905;SDS011;13713;52.552;13.204;2023-02-04T13:17:12;24.33;;;17.30;;
25905;SDS011;13713;52.552;13.204;2023-02-04T13:19:38;26.08;;;18.75;;
25905;SDS011;13713;52.552;13.204;2023-02-04T13:22:04;25.45;;;17.25;;
25905;SDS011;13713;52.552;13.204;2023-02-04T13:24:29;23.75;;;16.38;;
25905;SDS011;13713;52.552;13.204;2023-02-04T13:26:55;23.55;;;16.63;;
25905;SDS011;13713;52.552;13.204;2023-02-04T13:29:21;23.88;;;16.75;;
25905;SDS011;13713;52.552;13.204;2023-02-04T13:31:47;24.20;;;17.02;;
25905;SDS011;13713;52.552;13.204;2023-02-04T13:34:13;21.55;;;16.42;;
25905;SDS011;13713;52.552;13.204;2023-02-04T13:36:39;23.80;;;17.17;;
25905;SDS011;13713;52.552;13.204;2023-02-04T13:39:06;23.00;;;16.00;;
25905;SDS011;13713;52.552;13.204;2023-02-04T13:41:31;21.67;;;15.77;;
25905;SDS011;13713;52.552;13.204;2023-02-04T13:43:57;23.60;;;16.52;;
25905;SDS011;13713;52.552;13.204;2023-02-04T13:46:23;21.95;;;16.02;;
25905;SDS011;13713;52.552;13.204;2023-02-04T13:48:49;20.13;;;15.20;;
25905;SDS011;13713;52.552;13.204;2023-02-04T13:51:15;21.25;;;16.40;;
25905;SDS011;13713;52.552;13.204;2023-02-04T13:53:41;22.65;;;15.55;;
25905;SDS011;13713;52.552;13.204;2023-02-04T13:56:07;21.30;;;15.02;;
25905;SDS011;13713;52.552;13.204;2023-02-04T13:58:33;20.13;;;14.57;;
25905;SDS011;13713;52.552;13.204;2023-02-04T14:00:59;20.08;;;15.23;;
25905;SDS011;13713;52.552;13.204;2023-02-04T14:03:25;19.02;;;14.02;;
25905;SDS011;13713;52.552;13.204;2023-02-04T14:05:52;20.92;;;14.98;;
25905;SDS011;13713;52.552;13.204;2023-02-04T14:08:18;20.85;;;14.85;;
25905;SDS011;13713;52.552;13.204;2023-02-04T14:10:44;20.48;;;14.63;;
25905;SDS011;13713;52.552;13.204;2023-02-04T14:13:11;21.45;;;14.60;;
25905;SDS011;13713;52.552;13.204;2023-02-04T14:15:36;21.58;;;14.57;;
25905;SDS011;13713;52.552;13.204;2023-02-04T14:18:03;20.17;;;14.20;;
25905;SDS011;13713;52.552;13.204;2023-02-04T14:20:29;17.15;;;13.27;;
25905;SDS011;13713;52.552;13.204;2023-02-04T14:22:55;18.88;;;13.82;;
25905;SDS011;13713;52.552;13.204;2023-02-04T14:25:21;20.30;;;13.68;;
25905;SDS011;13713;52.552;13.204;2023-02-04T14:27:48;18.90;;;14.00;;
25905;SDS011;13713;52.552;13.204;2023-02-04T14:32:42;16.85;;;12.80;;
25905;SDS011;13713;52.552;13.204;2023-02-04T14:35:08;20.17;;;13.32;;
25905;SDS011;13713;52.552;13.204;2023-02-04T14:37:33;19.35;;;13.50;;
25905;SDS011;13713;52.552;13.204;2023-02-04T14:39:59;18.83;;;12.85;;
25905;SDS011;13713;52.552;13.204;2023-02-04T14:42:25;17.05;;;12.52;;
25905;SDS011;13713;52.552;13.204;2023-02-04T14:44:50;19.50;;;13.25;;
25905;SDS011;13713;52.552;13.204;2023-02-04T14:47:16;17.80;;;13.23;;
25905;SDS011;13713;52.552;13.204;2023-02-04T14:49:42;20.00;;;13.43;;